sensor_id;sensor_type;location;lat;lon;timestamp;pressure;altitude;pressure_sealevel;temperature;humidity
59487;BME280;45298;54.918;73.504;2022-08-19T00:00:11;100708.03;;;9.64;70.27
59487;BME280;45298;54.918;73.504;2022-08-19T00:02:42;100706.03;;;9.70;69.88
59487;BME280;45298;54.918;73.504;2022-08-19T00:05:17;100696.94;;;9.56;69.89
59487;BME280;45298;54.918;73.504;2022-08-19T00:07:47;100694.44;;;9.53;70.12
59487;BME280;45298;54.918;73.504;2022-08-19T00:10:17;100684.06;;;9.48;70.17
59487;BME280;45298;54.918;73.504;2022-08-19T00:12:47;100710.03;;;9.59;70.85
59487;BME280;45298;54.918;73.504;2022-08-19T00:15:19;100710.75;;;9.63;70.32
59487;BME280;45298;54.918;73.504;2022-08-19T00:17:49;100706.59;;;9.57;70.19
59487;BME280;45298;54.918;73.504;2022-08-19T00:20:19;100667.88;;;9.35;70.19
59487;BME280;45298;54.918;73.504;2022-08-19T00:22:48;100722.06;;;9.66;70.42
59487;BME280;45298;54.918;73.504;2022-08-19T00:25:18;100723.06;;;9.64;70.65
59487;BME280;45298;54.918;73.504;2022-08-19T00:27:57;100709.69;;;9.48;70.75
59487;BME280;45298;54.918;73.504;2022-08-19T00:30:27;100713.97;;;9.50;70.51
59487;BME280;45298;54.918;73.504;2022-08-19T00:32:57;100724.72;;;9.66;70.43
59487;BME280;45298;54.918;73.504;2022-08-19T00:35:26;100702.03;;;9.61;71.01
59487;BME280;45298;54.918;73.504;2022-08-19T00:37:55;100732.94;;;9.79;70.57
59487;BME280;45298;54.918;73.504;2022-08-19T00:40:24;100713.81;;;9.73;70.96
59487;BME280;45298;54.918;73.504;2022-08-19T00:42:54;100742.28;;;9.87;70.90
59487;BME280;45298;54.918;73.504;2022-08-19T00:45:25;100740.53;;;9.87;71.26
59487;BME280;45298;54.918;73.504;2022-08-19T00:47:54;100715.63;;;9.72;70.62
59487;BME280;45298;54.918;73.504;2022-08-19T00:50:23;100737.78;;;9.89;70.77
59487;BME280;45298;54.918;73.504;2022-08-19T00:52:52;100692.28;;;9.61;70.69
59487;BME280;45298;54.918;73.504;2022-08-19T00:55:24;100735.13;;;9.89;70.48
59487;BME280;45298;54.918;73.504;2022-08-19T00:57:56;100718.97;;;9.76;69.71
59487;BME280;45298;54.918;73.504;2022-08-19T01:00:27;100722.34;;;9.79;69.75
59487;BME280;45298;54.918;73.504;2022-08-19T01:02:56;100706.03;;;9.70;70.25
59487;BME280;45298;54.918;73.504;2022-08-19T01:05:27;100691.06;;;9.68;70.19
59487;BME280;45298;54.918;73.504;2022-08-19T01:07:59;100728.19;;;9.86;70.12
59487;BME280;45298;54.918;73.504;2022-08-19T01:10:35;100710.97;;;9.77;70.06
59487;BME280;45298;54.918;73.504;2022-08-19T01:13:05;100714.44;;;9.78;69.95
59487;BME280;45298;54.918;73.504;2022-08-19T01:15:40;100722.50;;;9.76;69.21
59487;BME280;45298;54.918;73.504;2022-08-19T01:18:13;100722.16;;;9.82;69.96
59487;BME280;45298;54.918;73.504;2022-08-19T01:20:43;100719.47;;;9.84;69.29
59487;BME280;45298;54.918;73.504;2022-08-19T01:23:13;100713.47;;;9.80;69.64
59487;BME280;45298;54.918;73.504;2022-08-19T01:25:48;100662.38;;;9.59;69.68
59487;BME280;45298;54.918;73.504;2022-08-19T01:28:22;100721.50;;;9.96;69.49
59487;BME280;45298;54.918;73.504;2022-08-19T01:31:09;100733.41;;;10.07;69.74
59487;BME280;45298;54.918;73.504;2022-08-19T01:33:56;100705.69;;;9.95;69.38
59487;BME280;45298;54.918;73.504;2022-08-19T01:36:35;100701.56;;;9.89;69.29
59487;BME280;45298;54.918;73.504;2022-08-19T01:39:10;100716.63;;;10.06;69.68
59487;BME280;45298;54.918;73.504;2022-08-19T01:41:39;100732.16;;;10.14;69.32
59487;BME280;45298;54.918;73.504;2022-08-19T01:44:09;100730.59;;;10.10;69.42
59487;BME280;45298;54.918;73.504;2022-08-19T01:46:47;100728.69;;;10.12;69.65
59487;BME280;45298;54.918;73.504;2022-08-19T01:49:19;100713.13;;;10.06;70.10
59487;BME280;45298;54.918;73.504;2022-08-19T01:51:49;100702.72;;;10.01;69.69
59487;BME280;45298;54.918;73.504;2022-08-19T01:54:20;100641.88;;;9.63;69.89
59487;BME280;45298;54.918;73.504;2022-08-19T01:57:08;100698.53;;;9.97;70.54
59487;BME280;45298;54.918;73.504;2022-08-19T01:59:41;100689.66;;;9.98;70.39
59487;BME280;45298;54.918;73.504;2022-08-19T02:02:11;100714.75;;;10.08;70.62
59487;BME280;45298;54.918;73.504;2022-08-19T02:04:40;100711.16;;;10.09;70.36
59487;BME280;45298;54.918;73.504;2022-08-19T02:07:09;100719.75;;;10.15;71.06
59487;BME280;45298;54.918;73.504;2022-08-19T02:09:37;100688.00;;;9.95;71.01
59487;BME280;45298;54.918;73.504;2022-08-19T02:12:07;100707.69;;;10.09;70.60
59487;BME280;45298;54.918;73.504;2022-08-19T02:14:36;100716.25;;;10.14;70.77
59487;BME280;45298;54.918;73.504;2022-08-19T02:17:05;100719.53;;;10.19;70.97
59487;BME280;45298;54.918;73.504;2022-08-19T02:19:34;100721.09;;;10.23;70.82
59487;BME280;45298;54.918;73.504;2022-08-19T02:22:07;100723.50;;;10.28;70.80
59487;BME280;45298;54.918;73.504;2022-08-19T02:24:36;100715.84;;;10.22;71.03
59487;BME280;45298;54.918;73.504;2022-08-19T02:27:05;100705.34;;;10.20;70.71
59487;BME280;45298;54.918;73.504;2022-08-19T02:29:34;100700.19;;;10.17;71.19
59487;BME280;45298;54.918;73.504;2022-08-19T02:32:02;100710.34;;;10.26;70.56
59487;BME280;45298;54.918;73.504;2022-08-19T02:34:32;100702.44;;;10.25;71.11
59487;BME280;45298;54.918;73.504;2022-08-19T02:37:01;100674.16;;;10.08;70.78
59487;BME280;45298;54.918;73.504;2022-08-19T02:39:30;100736.81;;;10.46;70.81
59487;BME280;45298;54.918;73.504;2022-08-19T02:41:59;100678.19;;;10.15;70.29
59487;BME280;45298;54.918;73.504;2022-08-19T02:44:28;100715.75;;;10.42;70.02
59487;BME280;45298;54.918;73.504;2022-08-19T02:46:58;100712.16;;;10.43;70.02
59487;BME280;45298;54.918;73.504;2022-08-19T02:49:27;100737.19;;;10.55;70.17
59487;BME280;45298;54.918;73.504;2022-08-19T02:52:01;100719.19;;;10.45;70.06
59487;BME280;45298;54.918;73.504;2022-08-19T02:54:30;100720.06;;;10.45;69.49
59487;BME280;45298;54.918;73.504;2022-08-19T02:56:59;100731.75;;;10.58;69.99
59487;BME280;45298;54.918;73.504;2022-08-19T02:59:30;100696.53;;;10.37;69.13
59487;BME280;45298;54.918;73.504;2022-08-19T03:01:59;100704.97;;;10.46;70.24
59487;BME280;45298;54.918;73.504;2022-08-19T03:04:28;100728.84;;;10.63;69.25
59487;BME280;45298;54.918;73.504;2022-08-19T03:06:57;100707.34;;;10.52;69.74
59487;BME280;45298;54.918;73.504;2022-08-19T03:09:37;100686.16;;;10.50;69.10
59487;BME280;45298;54.918;73.504;2022-08-19T03:12:06;100744.69;;;10.82;69.37
59487;BME280;45298;54.918;73.504;2022-08-19T03:14:35;100734.84;;;10.84;69.32
59487;BME280;45298;54.918;73.504;2022-08-19T03:17:05;100742.81;;;10.84;69.09
59487;BME280;45298;54.918;73.504;2022-08-19T03:19:34;100717.63;;;10.76;68.65
59487;BME280;45298;54.918;73.504;2022-08-19T03:22:03;100712.13;;;10.79;68.45
59487;BME280;45298;54.918;73.504;2022-08-19T03:24:33;100706.81;;;10.79;68.32
59487;BME280;45298;54.918;73.504;2022-08-19T03:27:01;100744.81;;;10.97;67.34
59487;BME280;45298;54.918;73.504;2022-08-19T03:29:37;100718.06;;;10.84;68.61
59487;BME280;45298;54.918;73.504;2022-08-19T03:32:12;100737.88;;;10.94;68.57
59487;BME280;45298;54.918;73.504;2022-08-19T03:34:59;100679.06;;;10.68;67.70
59487;BME280;45298;54.918;73.504;2022-08-19T03:37:27;100737.22;;;11.07;68.21
59487;BME280;45298;54.918;73.504;2022-08-19T03:39:56;100709.47;;;10.96;67.50
59487;BME280;45298;54.918;73.504;2022-08-19T03:42:25;100735.25;;;11.10;67.34
59487;BME280;45298;54.918;73.504;2022-08-19T03:45:12;100724.88;;;11.06;67.84
59487;BME280;45298;54.918;73.504;2022-08-19T03:47:40;100732.59;;;11.10;67.74
59487;BME280;45298;54.918;73.504;2022-08-19T03:50:09;100692.16;;;10.89;67.25
59487;BME280;45298;54.918;73.504;2022-08-19T03:52:38;100716.16;;;11.03;67.29
59487;BME280;45298;54.918;73.504;2022-08-19T03:55:13;100737.84;;;11.12;67.28
59487;BME280;45298;54.918;73.504;2022-08-19T03:57:41;100711.88;;;11.01;66.99
59487;BME280;45298;54.918;73.504;2022-08-19T04:00:11;100721.97;;;11.10;66.63
59487;BME280;45298;54.918;73.504;2022-08-19T04:02:41;100718.31;;;11.13;67.54
59487;BME280;45298;54.918;73.504;2022-08-19T04:05:28;100704.19;;;11.12;67.67
59487;BME280;45298;54.918;73.504;2022-08-19T04:07:56;100709.00;;;11.22;67.10
59487;BME280;45298;54.918;73.504;2022-08-19T04:10:27;100746.63;;;11.46;67.32
59487;BME280;45298;54.918;73.504;2022-08-19T04:12:56;100630.16;;;10.90;67.02
59487;BME280;45298;54.918;73.504;2022-08-19T04:15:25;100701.91;;;11.38;66.99
59487;BME280;45298;54.918;73.504;2022-08-19T04:17:54;100695.66;;;11.39;66.36
59487;BME280;45298;54.918;73.504;2022-08-19T04:20:22;100721.19;;;11.58;65.85
59487;BME280;45298;54.918;73.504;2022-08-19T04:22:51;100729.09;;;11.75;66.19
59487;BME280;45298;54.918;73.504;2022-08-19T04:25:20;100703.22;;;11.63;66.77
59487;BME280;45298;54.918;73.504;2022-08-19T04:27:49;100711.16;;;11.79;65.85
59487;BME280;45298;54.918;73.504;2022-08-19T04:30:18;100709.53;;;11.76;65.46
59487;BME280;45298;54.918;73.504;2022-08-19T04:32:47;100721.34;;;11.87;65.11
59487;BME280;45298;54.918;73.504;2022-08-19T04:35:15;100707.13;;;11.88;65.51
59487;BME280;45298;54.918;73.504;2022-08-19T04:37:49;100716.94;;;12.03;64.46
59487;BME280;45298;54.918;73.504;2022-08-19T04:40:18;100703.88;;;11.99;65.95
59487;BME280;45298;54.918;73.504;2022-08-19T04:43:05;100689.13;;;11.93;65.75
59487;BME280;45298;54.918;73.504;2022-08-19T04:45:36;100708.41;;;12.13;65.54
59487;BME280;45298;54.918;73.504;2022-08-19T04:48:11;100725.91;;;12.17;65.39
59487;BME280;45298;54.918;73.504;2022-08-19T04:50:55;100729.41;;;12.17;65.04
59487;BME280;45298;54.918;73.504;2022-08-19T04:53:29;100719.72;;;12.16;64.94
59487;BME280;45298;54.918;73.504;2022-08-19T04:56:08;100689.97;;;12.09;65.35
59487;BME280;45298;54.918;73.504;2022-08-19T04:58:39;100690.84;;;12.10;65.17
59487;BME280;45298;54.918;73.504;2022-08-19T05:01:17;100705.22;;;12.22;64.16
59487;BME280;45298;54.918;73.504;2022-08-19T05:03:46;100693.06;;;12.18;63.63
59487;BME280;45298;54.918;73.504;2022-08-19T05:06:17;100710.88;;;12.32;63.87
59487;BME280;45298;54.918;73.504;2022-08-19T05:08:48;100669.88;;;12.20;64.10
59487;BME280;45298;54.918;73.504;2022-08-19T05:11:23;100719.19;;;12.56;63.28
59487;BME280;45298;54.918;73.504;2022-08-19T05:13:53;100712.47;;;12.65;62.24
59487;BME280;45298;54.918;73.504;2022-08-19T05:16:24;100690.22;;;12.66;62.88
59487;BME280;45298;54.918;73.504;2022-08-19T05:18:54;100706.19;;;12.95;62.09
59487;BME280;45298;54.918;73.504;2022-08-19T05:21:42;100699.84;;;13.12;62.08
59487;BME280;45298;54.918;73.504;2022-08-19T05:24:30;100694.63;;;13.10;62.14
59487;BME280;45298;54.918;73.504;2022-08-19T05:27:02;100651.63;;;13.02;60.02
59487;BME280;45298;54.918;73.504;2022-08-19T05:29:33;100689.75;;;13.32;60.68
59487;BME280;45298;54.918;73.504;2022-08-19T05:32:04;100702.03;;;13.49;59.25
59487;BME280;45298;54.918;73.504;2022-08-19T05:34:35;100651.97;;;13.25;60.28
59487;BME280;45298;54.918;73.504;2022-08-19T05:37:06;100661.22;;;13.19;59.81
59487;BME280;45298;54.918;73.504;2022-08-19T05:39:37;100680.25;;;13.42;59.46
59487;BME280;45298;54.918;73.504;2022-08-19T05:42:09;100690.91;;;13.42;59.25
59487;BME280;45298;54.918;73.504;2022-08-19T05:44:43;100694.84;;;13.64;60.76
59487;BME280;45298;54.918;73.504;2022-08-19T05:47:13;100687.06;;;13.88;59.42
59487;BME280;45298;54.918;73.504;2022-08-19T05:49:43;100677.06;;;13.92;59.79
59487;BME280;45298;54.918;73.504;2022-08-19T05:52:14;100670.28;;;14.13;58.91
59487;BME280;45298;54.918;73.504;2022-08-19T05:54:46;100656.88;;;14.28;58.20
59487;BME280;45298;54.918;73.504;2022-08-19T05:57:19;100601.56;;;14.17;58.92
59487;BME280;45298;54.918;73.504;2022-08-19T05:59:47;100656.72;;;14.83;58.47
59487;BME280;45298;54.918;73.504;2022-08-19T06:02:29;100662.44;;;15.15;57.46
59487;BME280;45298;54.918;73.504;2022-08-19T06:05:03;100623.47;;;14.87;57.94
59487;BME280;45298;54.918;73.504;2022-08-19T06:07:32;100618.50;;;14.69;56.99
59487;BME280;45298;54.918;73.504;2022-08-19T06:10:04;100645.38;;;14.66;57.11
59487;BME280;45298;54.918;73.504;2022-08-19T06:12:34;100661.59;;;14.63;57.63
59487;BME280;45298;54.918;73.504;2022-08-19T06:15:09;100656.50;;;14.60;57.89
59487;BME280;45298;54.918;73.504;2022-08-19T06:17:39;100656.25;;;14.63;57.53
59487;BME280;45298;54.918;73.504;2022-08-19T06:20:14;100623.91;;;14.55;56.83
59487;BME280;45298;54.918;73.504;2022-08-19T06:22:47;100665.69;;;14.94;56.04
59487;BME280;45298;54.918;73.504;2022-08-19T06:25:20;100653.94;;;14.97;55.76
59487;BME280;45298;54.918;73.504;2022-08-19T06:27:48;100591.34;;;14.62;55.48
59487;BME280;45298;54.918;73.504;2022-08-19T06:30:37;100633.22;;;14.88;56.35
59487;BME280;45298;54.918;73.504;2022-08-19T06:33:06;100631.28;;;14.90;55.99
59487;BME280;45298;54.918;73.504;2022-08-19T06:35:39;100627.44;;;14.94;55.84
59487;BME280;45298;54.918;73.504;2022-08-19T06:38:08;100570.59;;;14.66;56.94
59487;BME280;45298;54.918;73.504;2022-08-19T06:40:40;100586.75;;;14.90;55.72
59487;BME280;45298;54.918;73.504;2022-08-19T06:43:13;100641.66;;;15.32;56.25
59487;BME280;45298;54.918;73.504;2022-08-19T06:45:45;100632.13;;;15.40;55.87
59487;BME280;45298;54.918;73.504;2022-08-19T06:48:14;100633.47;;;15.59;56.30
59487;BME280;45298;54.918;73.504;2022-08-19T06:50:44;100645.34;;;15.55;56.13
59487;BME280;45298;54.918;73.504;2022-08-19T06:53:13;100586.31;;;15.21;55.97
59487;BME280;45298;54.918;73.504;2022-08-19T06:55:41;100623.19;;;15.29;56.17
59487;BME280;45298;54.918;73.504;2022-08-19T06:58:10;100621.22;;;15.06;56.71
59487;BME280;45298;54.918;73.504;2022-08-19T07:00:40;100628.81;;;14.87;57.35
59487;BME280;45298;54.918;73.504;2022-08-19T07:03:08;100598.81;;;14.57;58.23
59487;BME280;45298;54.918;73.504;2022-08-19T07:05:40;100526.44;;;13.97;58.58
59487;BME280;45298;54.918;73.504;2022-08-19T07:08:13;100611.84;;;14.36;57.93
59487;BME280;45298;54.918;73.504;2022-08-19T07:10:44;100635.97;;;14.47;58.59
59487;BME280;45298;54.918;73.504;2022-08-19T07:13:13;100616.06;;;14.13;58.45
59487;BME280;45298;54.918;73.504;2022-08-19T07:15:42;100645.44;;;14.26;59.10
59487;BME280;45298;54.918;73.504;2022-08-19T07:18:10;100612.97;;;14.06;59.51
59487;BME280;45298;54.918;73.504;2022-08-19T07:20:39;100633.66;;;14.02;59.06
59487;BME280;45298;54.918;73.504;2022-08-19T07:23:09;100632.06;;;14.00;60.18
59487;BME280;45298;54.918;73.504;2022-08-19T07:25:43;100641.13;;;13.97;60.47
59487;BME280;45298;54.918;73.504;2022-08-19T07:28:19;100634.00;;;13.98;60.61
59487;BME280;45298;54.918;73.504;2022-08-19T07:30:52;100567.47;;;13.69;60.68
59487;BME280;45298;54.918;73.504;2022-08-19T07:33:21;100612.44;;;14.14;59.97
59487;BME280;45298;54.918;73.504;2022-08-19T07:35:54;100613.22;;;14.29;60.11
59487;BME280;45298;54.918;73.504;2022-08-19T07:38:23;100603.28;;;14.18;60.03
59487;BME280;45298;54.918;73.504;2022-08-19T07:40:53;100627.19;;;14.19;60.67
59487;BME280;45298;54.918;73.504;2022-08-19T07:43:22;100631.13;;;14.01;61.61
59487;BME280;45298;54.918;73.504;2022-08-19T07:46:02;100651.69;;;13.99;62.77
59487;BME280;45298;54.918;73.504;2022-08-19T07:48:30;100648.88;;;13.87;63.45
59487;BME280;45298;54.918;73.504;2022-08-19T07:51:02;100624.94;;;13.73;63.98
59487;BME280;45298;54.918;73.504;2022-08-19T07:53:31;100640.94;;;13.73;63.77
59487;BME280;45298;54.918;73.504;2022-08-19T07:56:06;100625.97;;;13.57;64.12
59487;BME280;45298;54.918;73.504;2022-08-19T07:58:39;100618.56;;;13.48;64.97
59487;BME280;45298;54.918;73.504;2022-08-19T08:01:11;100631.19;;;13.59;65.18
59487;BME280;45298;54.918;73.504;2022-08-19T08:03:40;100642.28;;;13.66;65.08
59487;BME280;45298;54.918;73.504;2022-08-19T08:06:27;100621.91;;;13.65;63.97
59487;BME280;45298;54.918;73.504;2022-08-19T08:09:16;100617.84;;;13.59;64.28
59487;BME280;45298;54.918;73.504;2022-08-19T08:12:01;100603.50;;;13.47;63.78
59487;BME280;45298;54.918;73.504;2022-08-19T08:14:52;100625.97;;;13.57;63.79
59487;BME280;45298;54.918;73.504;2022-08-19T08:17:25;100627.47;;;13.62;63.48
59487;BME280;45298;54.918;73.504;2022-08-19T08:20:14;100619.56;;;13.60;62.70
59487;BME280;45298;54.918;73.504;2022-08-19T08:22:47;100620.78;;;13.69;63.17
59487;BME280;45298;54.918;73.504;2022-08-19T08:25:34;100597.09;;;13.64;63.83
59487;BME280;45298;54.918;73.504;2022-08-19T08:28:04;100547.69;;;13.31;62.58
59487;BME280;45298;54.918;73.504;2022-08-19T08:30:33;100614.63;;;13.81;63.25
59487;BME280;45298;54.918;73.504;2022-08-19T08:33:04;100613.47;;;13.85;62.85
59487;BME280;45298;54.918;73.504;2022-08-19T08:35:32;100622.22;;;13.87;63.36
59487;BME280;45298;54.918;73.504;2022-08-19T08:38:02;100618.59;;;13.88;62.87
59487;BME280;45298;54.918;73.504;2022-08-19T08:40:48;100632.84;;;14.02;62.72
59487;BME280;45298;54.918;73.504;2022-08-19T08:43:33;100616.47;;;13.94;63.08
59487;BME280;45298;54.918;73.504;2022-08-19T08:46:07;100631.22;;;14.12;62.89
59487;BME280;45298;54.918;73.504;2022-08-19T08:48:54;100574.22;;;13.87;62.91
59487;BME280;45298;54.918;73.504;2022-08-19T08:51:47;100572.84;;;13.95;63.14
59487;BME280;45298;54.918;73.504;2022-08-19T08:54:33;100553.75;;;13.88;62.00
59487;BME280;45298;54.918;73.504;2022-08-19T08:57:04;100609.72;;;14.28;62.58
59487;BME280;45298;54.918;73.504;2022-08-19T08:59:38;100605.63;;;14.23;62.34
59487;BME280;45298;54.918;73.504;2022-08-19T09:02:08;100607.34;;;14.24;62.65
59487;BME280;45298;54.918;73.504;2022-08-19T09:04:38;100607.66;;;14.19;62.29
59487;BME280;45298;54.918;73.504;2022-08-19T09:07:32;100590.88;;;14.04;63.24
59487;BME280;45298;54.918;73.504;2022-08-19T09:10:19;100576.47;;;13.94;62.82
59487;BME280;45298;54.918;73.504;2022-08-19T09:13:08;100601.06;;;14.12;63.23
59487;BME280;45298;54.918;73.504;2022-08-19T09:15:44;100585.66;;;14.02;64.00
59487;BME280;45298;54.918;73.504;2022-08-19T09:18:14;100558.88;;;13.91;64.67
59487;BME280;45298;54.918;73.504;2022-08-19T09:20:46;100589.41;;;14.13;63.46
59487;BME280;45298;54.918;73.504;2022-08-19T09:23:16;100583.22;;;14.12;63.70
59487;BME280;45298;54.918;73.504;2022-08-19T09:25:53;100540.41;;;13.88;63.80
59487;BME280;45298;54.918;73.504;2022-08-19T09:28:22;100553.97;;;13.98;64.11
59487;BME280;45298;54.918;73.504;2022-08-19T09:30:53;100591.44;;;14.22;63.51
59487;BME280;45298;54.918;73.504;2022-08-19T09:33:22;100576.19;;;14.11;63.73
59487;BME280;45298;54.918;73.504;2022-08-19T09:36:03;100559.00;;;14.02;64.27
59487;BME280;45298;54.918;73.504;2022-08-19T09:38:36;100515.31;;;13.78;64.53
59487;BME280;45298;54.918;73.504;2022-08-19T09:41:13;100567.63;;;14.06;64.37
59487;BME280;45298;54.918;73.504;2022-08-19T09:43:47;100559.81;;;14.03;64.80
59487;BME280;45298;54.918;73.504;2022-08-19T09:46:17;100556.31;;;14.02;64.72
59487;BME280;45298;54.918;73.504;2022-08-19T09:48:50;100589.63;;;14.23;65.00
59487;BME280;45298;54.918;73.504;2022-08-19T09:51:22;100564.00;;;14.07;64.97
59487;BME280;45298;54.918;73.504;2022-08-19T09:53:52;100565.84;;;14.07;65.23
59487;BME280;45298;54.918;73.504;2022-08-19T09:56:24;100571.25;;;14.05;65.30
59487;BME280;45298;54.918;73.504;2022-08-19T09:58:53;100531.13;;;13.81;65.58
59487;BME280;45298;54.918;73.504;2022-08-19T10:01:24;100579.81;;;14.10;66.01
59487;BME280;45298;54.918;73.504;2022-08-19T10:03:55;100568.28;;;13.97;66.03
59487;BME280;45298;54.918;73.504;2022-08-19T10:06:27;100564.41;;;13.88;66.63
59487;BME280;45298;54.918;73.504;2022-08-19T10:09:14;100508.69;;;13.57;66.65
59487;BME280;45298;54.918;73.504;2022-08-19T10:11:52;100579.16;;;13.94;67.30
59487;BME280;45298;54.918;73.504;2022-08-19T10:14:24;100565.03;;;13.79;68.53
59487;BME280;45298;54.918;73.504;2022-08-19T10:16:52;100559.47;;;13.69;68.92
59487;BME280;45298;54.918;73.504;2022-08-19T10:19:21;100535.53;;;13.54;70.26
59487;BME280;45298;54.918;73.504;2022-08-19T10:21:53;100559.13;;;13.60;70.06
59487;BME280;45298;54.918;73.504;2022-08-19T10:24:26;100575.44;;;13.69;70.85
59487;BME280;45298;54.918;73.504;2022-08-19T10:26:56;100548.75;;;13.43;72.07
59487;BME280;45298;54.918;73.504;2022-08-19T10:29:27;100570.06;;;13.43;72.42
59487;BME280;45298;54.918;73.504;2022-08-19T10:32:04;100551.59;;;13.25;73.84
59487;BME280;45298;54.918;73.504;2022-08-19T10:34:37;100579.84;;;13.42;74.05
59487;BME280;45298;54.918;73.504;2022-08-19T10:37:16;100575.38;;;13.28;75.13
59487;BME280;45298;54.918;73.504;2022-08-19T10:39:58;100518.41;;;12.89;76.77
59487;BME280;45298;54.918;73.504;2022-08-19T10:42:27;100510.63;;;12.86;77.44
59487;BME280;45298;54.918;73.504;2022-08-19T10:44:56;100573.06;;;13.09;77.91
59487;BME280;45298;54.918;73.504;2022-08-19T10:47:24;100557.66;;;13.00;78.01
59487;BME280;45298;54.918;73.504;2022-08-19T10:49:58;100569.00;;;13.04;78.16
59487;BME280;45298;54.918;73.504;2022-08-19T10:52:47;100571.09;;;12.98;78.87
59487;BME280;45298;54.918;73.504;2022-08-19T10:55:20;100557.03;;;12.96;78.93
59487;BME280;45298;54.918;73.504;2022-08-19T10:58:13;100537.16;;;12.88;79.71
59487;BME280;45298;54.918;73.504;2022-08-19T11:00:42;100530.78;;;12.90;79.18
59487;BME280;45298;54.918;73.504;2022-08-19T11:03:12;100554.13;;;13.14;79.41
59487;BME280;45298;54.918;73.504;2022-08-19T11:05:41;100546.00;;;13.15;79.67
59487;BME280;45298;54.918;73.504;2022-08-19T11:08:09;100541.63;;;13.14;79.57
59487;BME280;45298;54.918;73.504;2022-08-19T11:10:52;100564.97;;;13.38;80.22
59487;BME280;45298;54.918;73.504;2022-08-19T11:13:23;100550.38;;;13.31;79.32
59487;BME280;45298;54.918;73.504;2022-08-19T11:16:14;100446.44;;;12.63;79.10
59487;BME280;45298;54.918;73.504;2022-08-19T11:18:46;100570.91;;;13.43;79.25
59487;BME280;45298;54.918;73.504;2022-08-19T11:21:20;100568.13;;;13.45;78.70
59487;BME280;45298;54.918;73.504;2022-08-19T11:23:52;100554.44;;;13.37;78.77
59487;BME280;45298;54.918;73.504;2022-08-19T11:26:22;100536.38;;;13.27;77.84
59487;BME280;45298;54.918;73.504;2022-08-19T11:28:51;100530.53;;;13.22;77.97
59487;BME280;45298;54.918;73.504;2022-08-19T11:31:25;100561.66;;;13.35;78.17
59487;BME280;45298;54.918;73.504;2022-08-19T11:34:01;100552.28;;;13.29;78.68
59487;BME280;45298;54.918;73.504;2022-08-19T11:36:31;100516.94;;;13.12;77.88
59487;BME280;45298;54.918;73.504;2022-08-19T11:39:03;100519.31;;;13.17;78.03
59487;BME280;45298;54.918;73.504;2022-08-19T11:41:32;100558.69;;;13.39;78.03
59487;BME280;45298;54.918;73.504;2022-08-19T11:44:01;100530.28;;;13.25;77.32
59487;BME280;45298;54.918;73.504;2022-08-19T11:46:31;100553.31;;;13.41;77.61
59487;BME280;45298;54.918;73.504;2022-08-19T11:49:00;100558.41;;;13.44;77.58
59487;BME280;45298;54.918;73.504;2022-08-19T11:51:30;100558.41;;;13.44;77.75
59487;BME280;45298;54.918;73.504;2022-08-19T11:53:59;100551.56;;;13.40;77.74
59487;BME280;45298;54.918;73.504;2022-08-19T11:56:30;100540.84;;;13.41;77.58
59487;BME280;45298;54.918;73.504;2022-08-19T11:59:00;100548.75;;;13.43;77.87
59487;BME280;45298;54.918;73.504;2022-08-19T12:01:29;100555.34;;;13.50;77.80
59487;BME280;45298;54.918;73.504;2022-08-19T12:03:59;100564.09;;;13.52;76.71
59487;BME280;45298;54.918;73.504;2022-08-19T12:06:31;100559.41;;;13.43;77.59
59487;BME280;45298;54.918;73.504;2022-08-19T12:09:04;100563.53;;;13.47;77.70
59487;BME280;45298;54.918;73.504;2022-08-19T12:11:33;100563.47;;;13.49;77.58
59487;BME280;45298;54.918;73.504;2022-08-19T12:14:02;100534.06;;;13.36;78.23
59487;BME280;45298;54.918;73.504;2022-08-19T12:16:31;100564.47;;;13.60;76.87
59487;BME280;45298;54.918;73.504;2022-08-19T12:19:01;100538.72;;;13.47;77.10
59487;BME280;45298;54.918;73.504;2022-08-19T12:21:34;100552.84;;;13.62;76.72
59487;BME280;45298;54.918;73.504;2022-08-19T12:24:05;100562.63;;;13.61;76.75
59487;BME280;45298;54.918;73.504;2022-08-19T12:26:34;100553.44;;;13.52;76.60
59487;BME280;45298;54.918;73.504;2022-08-19T12:29:21;100543.41;;;13.43;77.43
59487;BME280;45298;54.918;73.504;2022-08-19T12:31:51;100528.19;;;13.30;77.34
59487;BME280;45298;54.918;73.504;2022-08-19T12:34:20;100544.94;;;13.33;77.03
59487;BME280;45298;54.918;73.504;2022-08-19T12:36:48;100535.16;;;13.19;77.75
59487;BME280;45298;54.918;73.504;2022-08-19T12:39:17;100556.09;;;13.25;78.06
59487;BME280;45298;54.918;73.504;2022-08-19T12:41:46;100529.13;;;13.02;77.56
59487;BME280;45298;54.918;73.504;2022-08-19T12:44:22;100559.44;;;13.14;77.83
59487;BME280;45298;54.918;73.504;2022-08-19T12:46:57;100551.19;;;13.04;78.91
59487;BME280;45298;54.918;73.504;2022-08-19T12:49:28;100543.78;;;12.95;79.01
59487;BME280;45298;54.918;73.504;2022-08-19T12:52:17;100553.22;;;13.00;79.68
59487;BME280;45298;54.918;73.504;2022-08-19T16:16:21;100587.94;;;12.55;87.17
59487;BME280;45298;54.918;73.504;2022-08-19T16:19:02;100581.38;;;12.47;87.77
59487;BME280;45298;54.918;73.504;2022-08-19T16:21:37;100578.34;;;12.38;87.67
59487;BME280;45298;54.918;73.504;2022-08-19T16:24:11;100538.88;;;12.16;87.50
59487;BME280;45298;54.918;73.504;2022-08-19T16:26:43;100598.22;;;12.47;87.20
59487;BME280;45298;54.918;73.504;2022-08-19T16:29:14;100559.03;;;12.20;87.43